Time;durP1;ratioP1;P1;durP2;ratioP2;P2;SDS_P1;SDS_P2;PMS_P1;PMS_P2;Temp;Humidity;BMP_temperature;BMP_pressure;BME280_temperature;BME280_humidity;BME280_pressure;Samples;Min_cycle;Max_cycle;Signal;HPM_P1;HPM_P2
2022/05/14 00:01:40;;;;;;;9.43;4.15;;;;;;;15.46;55.59;99830.57;1629532;85;21056;-71
2022/05/14 00:04:10;;;;;;;5.45;3.52;;;;;;;15.46;55.72;99831.38;1687313;83;21078;-69
2022/05/14 00:06:36;;;;;;;4.83;3.85;;;;;;;15.46;56.07;99838.63;1687543;83;21015;-70
2022/05/14 00:09:05;;;;;;;6.17;4.00;;;;;;;15.47;55.74;99838.93;1687489;83;20995;-71
2022/05/14 00:14:18;;;;;;;8.43;3.47;;;;;;;15.46;55.60;99839.97;1709161;82;21054;-70
2022/05/14 00:16:45;;;;;;;4.10;3.80;;;;;;;15.43;55.76;99831.86;1677291;85;21103;-70
2022/05/14 00:19:11;;;;;;;5.70;3.98;;;;;;;15.40;55.85;99839.56;1714023;82;21488;-69
2022/05/14 00:21:38;;;;;;;5.45;4.87;;;;;;;15.37;55.97;99837.64;1678049;85;21533;-69
2022/05/14 00:24:07;;;;;;;4.53;3.65;;;;;;;15.34;56.09;99840.77;1696313;83;21517;-70
2022/05/14 00:26:39;;;;;;;4.12;3.83;;;;;;;15.31;56.30;99839.91;1697674;83;21081;-70
2022/05/14 00:29:08;;;;;;;5.42;3.52;;;;;;;15.29;56.56;99830.44;1697612;84;21017;-69
2022/05/14 00:31:36;;;;;;;3.80;3.25;;;;;;;15.25;56.83;99823.90;1697618;83;21101;-71
2022/05/14 00:34:04;;;;;;;5.55;3.90;;;;;;;15.21;57.11;99824.08;1704271;84;21046;-69
2022/05/14 00:36:30;;;;;;;8.05;4.28;;;;;;;15.17;57.40;99821.84;1714626;82;21571;-69
2022/05/14 00:38:57;;;;;;;4.28;3.98;;;;;;;15.13;58.34;99822.55;1714084;82;21042;-71
2022/05/14 00:41:24;;;;;;;;;;;;;;;15.10;58.44;99817.09;1717136;82;21519;-70
2022/05/14 00:43:57;;;;;;;5.62;4.15;;;;;;;15.07;58.80;99820.27;1711594;82;20124;-70
2022/05/14 00:46:38;;;;;;;5.33;4.05;;;;;;;14.95;59.32;99826.11;1665402;82;21596;-69
2022/05/14 00:49:04;;;;;;;7.08;3.45;;;;;;;14.92;59.59;99815.86;1689467;84;21584;-69
2022/05/14 00:51:31;;;;;;;5.90;3.52;;;;;;;14.90;59.46;99813.39;1709714;83;21000;-70
2022/05/14 00:54:11;;;;;;;5.72;4.20;;;;;;;14.84;59.71;99809.45;1693400;83;22201;-69
2022/05/14 00:56:43;;;;;;;3.22;2.83;;;;;;;14.81;59.77;99812.09;1698094;83;21989;-69
2022/05/14 00:59:13;;;;;;;3.85;3.37;;;;;;;14.77;59.93;99816.28;1682615;83;21488;-69
2022/05/14 01:01:42;;;;;;;5.97;3.60;;;;;;;14.74;59.88;99812.16;1700217;83;21033;-69
2022/05/14 01:04:09;;;;;;;6.78;2.58;;;;;;;14.74;59.76;99813.51;1693988;83;21018;-69
2022/05/14 01:06:39;;;;;;;4.92;3.35;;;;;;;14.74;59.86;99810.02;1694648;83;21018;-69
2022/05/14 01:09:06;;;;;;;6.12;2.85;;;;;;;14.74;59.77;99810.02;1693864;83;21082;-70
2022/05/14 01:11:39;;;;;;;3.50;3.12;;;;;;;14.75;59.98;99808.45;1694200;83;21029;-70
2022/05/14 01:14:07;;;;;;;3.37;2.92;;;;;;;14.73;60.15;99795.80;1693197;83;21133;-69
2022/05/14 01:16:35;;;;;;;5.58;3.62;;;;;;;14.72;60.24;99803.53;1701328;83;21029;-70
2022/05/14 01:19:01;;;;;;;;;;;;;;;14.70;60.10;99801.60;1674236;85;21065;-70
2022/05/14 01:21:54;;;;;;;6.67;3.15;;;;;;;14.71;60.01;99793.02;1667241;85;20143;-70
2022/05/14 01:27:13;;;;;;;4.40;3.40;;;;;;;14.68;60.36;99788.14;1720469;83;21024;-70
2022/05/14 01:29:41;;;;;;;;;;;;;;;14.67;60.54;99787.83;1688286;84;21046;-70
2022/05/14 01:32:09;;;;;;;3.72;3.25;;;;;;;14.65;60.67;99783.22;1683240;84;20151;-71
2022/05/14 01:34:35;;;;;;;;;;;;;;;14.57;60.98;99781.15;1687538;84;20998;-69
2022/05/14 01:37:03;;;;;;;3.37;3.08;;;;;;;14.54;61.06;99788.30;1699085;84;20455;-69
2022/05/14 01:39:31;;;;;;;3.95;2.70;;;;;;;14.46;61.19;99783.77;1712418;83;20995;-69
2022/05/14 01:41:57;;;;;;;3.52;2.80;;;;;;;14.41;61.35;99785.80;1690135;84;20992;-70
2022/05/14 01:44:24;;;;;;;4.08;2.70;;;;;;;14.39;61.59;99787.86;1674257;84;21035;-70
2022/05/14 01:46:52;;;;;;;5.42;2.30;;;;;;;14.39;61.76;99783.84;1694881;84;21194;-70
2022/05/14 01:49:18;;;;;;;3.27;1.98;;;;;;;14.41;62.04;99784.46;1687609;84;21022;-70
2022/05/14 01:51:45;;;;;;;5.45;2.90;;;;;;;14.43;62.00;99785.55;1686141;85;21078;-70
2022/05/14 01:54:12;;;;;;;4.35;2.87;;;;;;;14.44;62.00;99783.98;1686099;85;21074;-70
2022/05/14 01:56:39;;;;;;;4.97;2.77;;;;;;;14.46;62.08;99783.23;1662291;84;21181;-69
2022/05/14 01:59:05;;;;;;;;;;;;;;;14.48;61.92;99785.70;1658386;86;22031;-69
2022/05/14 02:01:37;;;;;;;3.50;2.47;;;;;;;14.48;61.96;99785.70;1685129;84;20205;-70
2022/05/14 02:04:11;;;;;;;3.80;2.45;;;;;;;14.41;62.14;99784.46;1680328;84;21029;-70
2022/05/14 02:06:38;;;;;;;2.95;2.75;;;;;;;14.37;62.34;99785.44;1688164;84;21023;-70
2022/05/14 02:09:09;;;;;;;3.35;2.95;;;;;;;14.35;62.50;99775.96;1698023;84;21102;-68
2022/05/14 02:11:39;;;;;;;4.25;2.72;;;;;;;14.32;62.28;99775.09;1710135;83;21013;-69
2022/05/14 02:14:08;;;;;;;3.20;2.72;;;;;;;14.32;62.41;99771.88;1696178;83;21598;-70
2022/05/14 02:16:38;;;;;;;4.25;2.58;;;;;;;14.31;62.45;99770.77;1677979;85;21335;-69
2022/05/14 02:19:05;;;;;;;3.08;1.77;;;;;;;14.31;62.37;99764.87;1677117;85;21068;-69
2022/05/14 02:21:32;;;;;;;;;;;;;;;14.30;62.56;99765.93;1681987;85;21086;-69
2022/05/14 02:23:59;;;;;;;7.33;2.45;;;;;;;14.29;62.61;99761.60;1665161;86;20470;-69
2022/05/14 02:26:25;;;;;;;10.58;2.30;;;;;;;14.25;62.82;99763.63;1698147;84;22256;-69
2022/05/14 02:28:52;;;;;;;5.83;2.20;;;;;;;14.26;62.76;99764.75;1702173;84;21074;-69
2022/05/14 02:31:18;;;;;;;2.40;1.92;;;;;;;14.28;62.81;99758.64;1698237;84;21129;-69
2022/05/14 02:33:44;;;;;;;4.17;2.47;;;;;;;14.32;62.62;99753.11;1698597;83;21070;-70
2022/05/14 02:36:10;;;;;;;;;;;;;;;14.36;62.50;99758.84;1702866;83;21332;-70
2022/05/14 02:38:38;;;;;;;4.43;2.43;;;;;;;14.40;62.31;99756.00;1700829;83;20126;-69
2022/05/14 02:41:06;;;;;;;2.40;2.20;;;;;;;14.39;62.36;99759.21;1700452;83;21125;-69
2022/05/14 02:43:34;;;;;;;6.62;2.22;;;;;;;14.43;62.24;99759.58;1700061;83;21580;-70
2022/05/14 02:46:02;;;;;;;4.05;2.15;;;;;;;14.46;62.22;99752.93;1685010;85;21038;-69
2022/05/14 02:48:31;;;;;;;2.42;2.05;;;;;;;14.47;62.30;99754.05;1700413;83;21557;-70
2022/05/14 02:50:58;;;;;;;5.20;1.92;;;;;;;14.52;62.16;99753.34;1660894;84;21098;-69
2022/05/14 02:53:25;;;;;;;3.42;2.47;;;;;;;14.53;62.12;99754.47;1713744;83;21141;-70
2022/05/14 02:55:52;;;;;;;3.55;2.22;;;;;;;14.56;62.07;99755.36;1720907;83;21082;-69
2022/05/14 02:59:07;;;;;;;5.60;1.87;;;;;;;14.62;61.91;99752.82;1700593;83;21199;-69
2022/05/14 03:00:47;;;;;;;5.37;2.35;;;;;;;14.68;61.84;99749.25;1710528;82;21084;-70
2022/05/14 03:03:14;;;;;;;1.92;1.70;;;;;;;14.75;61.59;99748.09;1681482;83;21550;-70
2022/05/14 03:05:41;;;;;;;7.17;1.75;;;;;;;14.83;61.45;99738.89;1666731;85;21118;-70
2022/05/14 03:08:07;;;;;;;1.55;1.20;;;;;;;14.95;61.23;99735.68;1700444;83;21578;-70
2022/05/14 03:10:34;;;;;;;2.35;1.80;;;;;;;15.08;60.85;99729.28;1700204;83;21082;-70
2022/05/14 03:13:03;;;;;;;7.17;1.87;;;;;;;15.25;60.45;99743.36;1698193;83;21083;-70
2022/05/14 03:15:29;;;;;;;6.70;2.52;;;;;;;15.38;60.03;99738.55;1698852;83;21575;-70
2022/05/14 03:17:56;;;;;;;2.90;1.10;;;;;;;15.59;60.04;99739.00;1700229;83;21044;-70
2022/05/14 03:20:22;;;;;;;4.80;1.72;;;;;;;15.84;59.87;99747.34;1685634;84;21094;-70
2022/05/14 03:22:49;;;;;;;2.35;1.60;;;;;;;16.07;59.13;99749.17;1693220;83;21154;-70
2022/05/14 03:25:15;;;;;;;1.55;1.45;;;;;;;16.28;58.16;99753.87;1685769;84;21119;-70
2022/05/14 03:27:41;;;;;;;3.62;1.32;;;;;;;16.45;57.80;99748.53;1722778;83;22219;-69
2022/05/14 03:30:09;;;;;;;3.08;1.55;;;;;;;16.61;57.76;99743.42;1701578;83;21349;-70
2022/05/14 03:32:35;;;;;;;5.12;1.62;;;;;;;16.73;56.82;99747.68;1685663;84;21558;-70
2022/05/14 03:35:05;;;;;;;1.67;1.25;;;;;;;16.74;56.79;99753.87;1695113;83;21588;-70
2022/05/14 03:37:33;;;;;;;3.20;1.47;;;;;;;16.68;56.85;99754.31;1700387;84;21069;-69
2022/05/14 03:39:59;;;;;;;3.92;1.52;;;;;;;16.61;56.88;99775.17;1685750;85;20995;-69
2022/05/14 03:42:26;;;;;;;3.67;1.52;;;;;;;16.55;57.17;99799.81;1700201;84;21097;-70
2022/05/14 03:44:56;;;;;;;4.75;1.95;;;;;;;16.44;57.32;99781.85;1685474;84;21070;-70
2022/05/14 03:47:23;;;;;;;10.45;2.52;;;;;;;16.33;57.41;99773.30;1700131;84;21077;-71
2022/05/14 03:49:49;;;;;;;10.80;2.17;;;;;;;16.24;57.85;99770.73;1700335;83;21034;-70
2022/05/14 03:52:16;;;;;;;8.25;2.08;;;;;;;16.29;58.02;99766.27;1686061;85;21058;-71
2022/05/14 03:54:45;;;;;;;2.40;1.65;;;;;;;16.47;57.91;99765.78;1720140;83;21073;-71
2022/05/14 03:57:13;;;;;;;3.62;1.02;;;;;;;16.93;56.38;99732.95;1665094;84;21036;-70
2022/05/14 03:59:40;;;;;;;2.67;1.85;;;;;;;16.93;56.38;99732.95;1677487;85;21071;-70
2022/05/14 04:02:07;;;;;;;3.45;1.25;;;;;;;16.96;55.34;99730.31;1689583;84;20998;-70
2022/05/14 04:04:34;;;;;;;7.97;1.82;;;;;;;16.76;56.48;99724.84;1690072;84;21026;-70
2022/05/14 04:07:13;;;;;;;5.42;1.60;;;;;;;16.56;56.86;99725.33;1816293;78;20992;-71
2022/05/14 04:09:40;;;;;;;;;;;;;;;16.31;57.88;99731.05;1818394;78;21011;-70
2022/05/14 04:12:08;;;;;;;2.77;1.47;;;;;;;16.15;58.57;99723.23;1815658;77;20171;-71
2022/05/14 04:14:35;;;;;;;2.83;1.55;;;;;;;15.97;59.34;99728.25;1815485;79;21028;-70
2022/05/14 04:17:02;;;;;;;2.67;1.65;;;;;;;15.93;59.17;99731.13;1772106;80;21119;-69
2022/05/14 04:19:29;;;;;;;3.65;1.92;;;;;;;15.98;59.15;99743.88;1780899;79;21047;-69
2022/05/14 04:21:55;;;;;;;1.90;1.80;;;;;;;16.10;59.11;99748.67;1724110;82;21483;-69
2022/05/14 04:24:21;;;;;;;2.37;1.90;;;;;;;16.26;59.03;99752.48;1785252;79;21048;-69
2022/05/14 04:26:48;;;;;;;2.25;1.35;;;;;;;16.33;59.40;99751.79;1787538;79;21059;-69
2022/05/14 04:29:14;;;;;;;4.20;1.62;;;;;;;16.33;61.12;99728.93;1787305;80;21102;-69
2022/05/14 04:31:40;;;;;;;3.60;2.00;;;;;;;16.06;60.21;99721.45;1787805;79;21091;-70
2022/05/14 04:34:07;;;;;;;;;;;;;;;15.78;61.34;99724.92;1782725;78;21039;-70
2022/05/14 04:36:33;;;;;;;2.40;1.92;;;;;;;15.57;63.30;99720.43;1773448;79;20165;-69
2022/05/14 04:38:59;;;;;;;2.58;2.35;;;;;;;15.36;64.05;99725.08;1787268;79;20988;-69
2022/05/14 04:41:30;;;;;;;5.47;2.85;;;;;;;15.29;65.59;99731.09;1787631;79;21156;-70
2022/05/14 04:43:54;;;;;;;7.12;2.40;;;;;;;15.21;66.80;99726.09;1787464;79;21075;-73
2022/05/14 04:46:20;;;;;;;5.72;2.42;;;;;;;15.06;68.71;99722.52;1787319;79;20979;-70
2022/05/14 04:48:47;;;;;;;3.00;2.22;;;;;;;14.92;69.71;99718.72;1785361;80;20987;-70
2022/05/14 04:51:13;;;;;;;4.83;2.45;;;;;;;14.84;68.89;99716.89;1807704;79;21048;-69
2022/05/14 04:53:39;;;;;;;4.22;3.08;;;;;;;14.90;69.48;99714.62;1787420;79;21053;-71
2022/05/14 04:56:06;;;;;;;4.33;2.67;;;;;;;14.97;69.29;99709.45;1807573;79;21001;-70
2022/05/14 04:58:33;;;;;;;7.90;2.95;;;;;;;15.09;69.24;99714.83;1787315;80;21000;-71
2022/05/14 05:00:59;;;;;;;2.92;2.62;;;;;;;15.25;69.48;99713.29;1787376;78;20996;-69
2022/05/14 05:03:27;;;;;;;;;;;;;;;15.42;68.76;99705.88;1789844;79;21008;-70
2022/05/14 05:05:59;;;;;;;2.77;2.58;;;;;;;15.56;68.83;99713.98;1787113;79;20161;-70
2022/05/14 05:08:30;;;;;;;3.67;2.30;;;;;;;15.68;69.25;99712.06;1787492;79;21515;-71
2022/05/14 05:10:57;;;;;;;6.53;2.67;;;;;;;16.15;69.83;99714.63;1787899;79;21051;-71
2022/05/14 05:13:28;;;;;;;5.45;2.37;;;;;;;17.01;68.66;99712.88;1787412;79;21273;-71
2022/05/14 05:15:55;;;;;;;4.45;3.20;;;;;;;18.05;63.56;99730.20;1786202;79;21323;-71
2022/05/14 05:18:21;;;;;;;;;;;;;;;18.78;60.61;99752.24;1789804;79;21142;-72
2022/05/14 05:20:49;;;;;;;7.20;2.83;;;;;;;19.10;57.79;99737.95;1784945;79;20122;-70
2022/05/14 05:23:21;;;;;;;6.10;2.25;;;;;;;19.11;57.91;99719.84;1784745;78;21095;-69
2022/05/14 05:25:48;;;;;;;2.52;2.33;;;;;;;19.11;57.76;99713.89;1786113;79;21046;-70
2022/05/14 05:28:15;;;;;;;6.40;2.90;;;;;;;19.09;56.71;99720.64;1787114;79;22153;-71
2022/05/14 05:30:42;;;;;;;3.95;2.87;;;;;;;18.98;55.93;99735.41;1787044;80;21519;-71
2022/05/14 05:33:15;;;;;;;5.47;2.33;;;;;;;18.82;57.51;99734.48;1787607;78;21539;-71
2022/05/14 05:35:41;;;;;;;5.70;2.40;;;;;;;18.85;56.92;99725.05;1787486;80;21348;-71
2022/05/14 05:38:09;;;;;;;7.17;2.87;;;;;;;19.24;56.64;99717.48;1787428;79;21024;-71
2022/05/14 05:40:36;;;;;;;4.12;3.02;;;;;;;19.81;55.33;99717.26;1787102;79;21051;-70
2022/05/14 05:43:06;;;;;;;6.50;3.02;;;;;;;19.94;53.66;99715.95;1779980;79;21517;-71
2022/05/14 05:45:33;;;;;;;4.72;2.92;;;;;;;19.92;54.22;99723.53;1772518;80;21569;-71
2022/05/14 05:48:00;;;;;;;6.05;2.95;;;;;;;19.98;55.13;99714.34;1786761;79;21485;-72
2022/05/14 05:50:26;;;;;;;4.90;2.80;;;;;;;19.99;52.37;99723.30;1786322;79;21551;-71
2022/05/14 05:52:54;;;;;;;4.50;2.75;;;;;;;19.82;53.05;99716.74;1787501;79;21607;-71
2022/05/14 05:58:08;;;;;;;;;;;;;;;19.39;51.53;99718.66;1771784;80;21088;-71
2022/05/14 06:00:36;;;;;;;4.17;3.30;;;;;;;19.09;51.63;99714.70;1787275;79;20098;-71
2022/05/14 06:03:03;;;;;;;6.30;3.58;;;;;;;18.82;51.72;99718.28;1785845;79;21064;-71
2022/05/14 06:05:31;;;;;;;2.70;2.50;;;;;;;18.71;52.00;99727.34;1787118;79;21150;-73
2022/05/14 06:07:57;;;;;;;9.48;3.70;;;;;;;18.77;53.10;99720.91;1787982;79;20996;-73
2022/05/14 06:10:24;;;;;;;7.92;3.33;;;;;;;18.88;52.39;99720.48;1787570;79;21084;-71
2022/05/14 06:12:51;;;;;;;6.03;4.28;;;;;;;19.00;52.10;99710.30;1787194;79;20949;-71
2022/05/14 06:15:20;;;;;;;7.85;4.53;;;;;;;19.17;52.55;99710.14;1788500;79;21074;-70
2022/05/14 06:17:46;;;;;;;3.87;3.25;;;;;;;19.37;51.06;99709.47;1767547;79;21024;-74
2022/05/14 06:20:16;;;;;;;7.03;4.15;;;;;;;19.50;51.04;99708.73;1787492;79;21071;-70
2022/05/14 06:22:44;;;;;;;3.95;2.98;;;;;;;19.48;50.78;99710.86;1787083;79;21448;-71
2022/05/14 06:25:12;;;;;;;7.12;4.42;;;;;;;19.39;51.62;99707.31;1787480;79;20991;-70
2022/05/14 06:27:39;;;;;;;11.73;3.90;;;;;;;19.29;51.60;99710.48;1787117;80;21035;-71
2022/05/14 06:30:07;;;;;;;;;;;;;;;19.15;51.05;99720.94;1790208;79;21055;-70
2022/05/14 06:32:32;;;;;;;;;;;;;;;19.03;52.15;99718.44;1790224;79;20122;-72
2022/05/14 06:34:59;;;;;;;13.00;5.60;;;;;;;18.85;52.11;99721.83;1787692;79;20134;-72
2022/05/14 06:37:25;;;;;;;10.55;4.97;;;;;;;18.63;52.44;99721.07;1787062;79;21000;-71
2022/05/14 06:39:51;;;;;;;7.70;5.42;;;;;;;18.54;54.29;99726.66;1766878;79;21583;-71
2022/05/14 06:42:18;;;;;;;;;;;;;;;18.51;53.43;99725.80;1789762;79;21028;-72
2022/05/14 06:44:44;;;;;;;7.37;6.33;;;;;;;18.48;53.16;99726.59;1765951;79;20099;-72
2022/05/14 06:47:10;;;;;;;;;;;;;;;18.41;53.10;99731.38;1790631;79;21000;-72
2022/05/14 06:49:37;;;;;;;6.87;5.50;;;;;;;18.31;53.89;99732.64;1783528;79;20183;-73
2022/05/14 06:52:05;;;;;;;8.48;6.45;;;;;;;18.23;54.85;99733.08;1770398;80;22090;-72
2022/05/14 06:54:35;;;;;;;10.48;6.58;;;;;;;18.19;53.95;99737.35;1787926;79;21487;-72
2022/05/14 06:57:02;;;;;;;7.25;6.47;;;;;;;18.16;54.13;99740.55;1787645;78;21019;-70
2022/05/14 06:59:28;;;;;;;8.78;6.05;;;;;;;18.23;55.00;99742.00;1781738;79;21107;-73
2022/05/14 07:01:55;;;;;;;11.12;6.85;;;;;;;18.35;54.87;99746.44;1770188;79;21074;-70
2022/05/14 07:07:07;;;;;;;10.40;7.62;;;;;;;18.61;54.01;99749.66;1787612;79;21104;-72
2022/05/14 07:09:34;;;;;;;9.28;7.55;;;;;;;18.70;54.01;99743.24;1787550;79;20996;-71
2022/05/14 07:12:09;;;;;;;13.95;9.40;;;;;;;18.77;53.66;99749.80;1787586;79;21103;-71
2022/05/14 07:14:37;;;;;;;14.47;8.85;;;;;;;18.84;52.77;99754.48;1787737;79;21107;-72
2022/05/14 07:17:04;;;;;;;16.17;9.13;;;;;;;18.83;53.18;99751.48;1807700;79;20958;-73
2022/05/14 07:19:30;;;;;;;16.45;9.20;;;;;;;18.93;54.39;99754.80;1787422;79;21071;-72
2022/05/14 07:21:56;;;;;;;12.25;9.73;;;;;;;19.07;53.50;99751.95;1787858;79;21035;-70
2022/05/14 07:24:28;;;;;;;18.35;9.43;;;;;;;19.18;53.94;99755.01;1787246;79;21500;-72
2022/05/14 07:26:59;;;;;;;13.15;9.25;;;;;;;19.26;53.17;99762.63;1787133;80;21028;-71
2022/05/14 07:29:27;;;;;;;18.62;11.65;;;;;;;19.43;52.69;99761.66;1788426;79;21039;-71
2022/05/14 07:31:54;;;;;;;17.00;11.83;;;;;;;19.60;52.04;99756.08;1773418;79;20976;-72
2022/05/14 07:34:21;;;;;;;20.43;12.58;;;;;;;19.74;51.42;99760.49;1785682;79;20995;-72
2022/05/14 07:36:56;;;;;;;18.98;13.68;;;;;;;19.82;50.57;99763.52;1787154;79;21000;-72
2022/05/14 07:39:27;;;;;;;19.25;14.87;;;;;;;19.84;49.50;99769.48;1791159;79;21035;-73
2022/05/14 07:41:57;;;;;;;20.37;14.38;;;;;;;19.80;49.23;99768.38;1787147;79;21076;-71
2022/05/14 07:44:29;;;;;;;22.00;13.83;;;;;;;19.77;48.64;99768.09;1787112;79;21069;-71
2022/05/14 07:48:24;;;;;;;18.85;11.93;;;;;;;19.78;48.35;99774.59;1783139;79;22716;-70
2022/05/14 07:50:52;;;;;;;20.92;13.40;;;;;;;19.75;46.85;99777.00;1756580;81;21034;-72
2022/05/14 07:53:19;;;;;;;16.97;12.37;;;;;;;19.74;46.49;99779.42;1757001;81;21070;-72
2022/05/14 07:55:45;;;;;;;18.55;12.10;;;;;;;19.80;46.06;99778.39;1740858;81;21057;-72
2022/05/14 07:58:12;;;;;;;21.95;13.20;;;;;;;19.83;45.17;99774.63;1685099;83;21132;-71
2022/05/14 08:00:39;;;;;;;20.88;12.43;;;;;;;19.87;45.08;99784.89;1695823;83;21085;-71
2022/05/14 08:03:08;;;;;;;16.17;12.60;;;;;;;19.85;44.55;99785.16;1680646;84;21382;-72
2022/05/14 08:05:34;;;;;;;17.77;11.60;;;;;;;19.83;44.16;99783.25;1672333;85;21101;-72
2022/05/14 08:08:02;;;;;;;19.70;12.75;;;;;;;19.81;44.32;99783.51;1666564;85;21096;-73
2022/05/14 08:10:29;;;;;;;25.20;13.50;;;;;;;19.83;44.69;99795.42;1666762;85;21085;-71
2022/05/14 08:12:56;;;;;;;23.18;12.28;;;;;;;19.84;44.78;99794.36;1655678;85;21076;-71
2022/05/14 08:15:26;;;;;;;18.50;13.55;;;;;;;19.87;45.12;99789.76;1654725;87;21126;-71
2022/05/14 08:17:53;;;;;;;20.08;13.83;;;;;;;19.92;45.09;99787.09;1646670;86;21080;-71
2022/05/14 08:20:20;;;;;;;21.40;13.55;;;;;;;19.96;44.85;99792.23;1663983;85;21034;-72
2022/05/14 08:25:33;;;;;;;24.47;14.63;;;;;;;19.96;44.64;99800.35;1618199;88;21545;-72
2022/05/14 08:28:00;;;;;;;18.95;13.72;;;;;;;19.93;44.27;99793.30;1600938;88;21082;-71
2022/05/14 08:30:32;;;;;;;21.87;14.58;;;;;;;19.90;44.54;99796.55;1617408;89;21062;-72
2022/05/14 08:32:59;;;;;;;17.80;13.28;;;;;;;19.83;44.28;99799.48;1637449;87;21081;-70
2022/05/14 08:35:28;;;;;;;21.12;12.95;;;;;;;19.72;44.74;99800.47;1636147;87;21026;-71
2022/05/14 08:37:55;;;;;;;19.20;12.95;;;;;;;19.68;45.20;99804.77;1634572;87;21018;-72
2022/05/14 08:40:37;;;;;;;21.33;14.55;;;;;;;19.61;46.07;99799.07;1643546;87;21534;-72
2022/05/14 08:43:14;;;;;;;18.80;13.03;;;;;;;19.56;45.60;99803.63;1618740;89;21062;-71
2022/05/14 08:45:40;;;;;;;21.65;13.08;;;;;;;19.47;45.76;99809.25;1621945;86;21579;-72
2022/05/14 08:48:21;;;;;;;19.25;11.90;;;;;;;19.40;45.87;99815.70;1657734;86;21084;-71
2022/05/14 08:50:56;;;;;;;17.90;11.43;;;;;;;19.33;45.41;99814.30;1665870;85;21044;-71
2022/05/14 08:53:25;;;;;;;22.50;12.20;;;;;;;19.26;45.60;99822.61;1656855;86;21086;-71
2022/05/14 08:56:15;;;;;;;22.20;13.72;;;;;;;19.21;45.24;99825.26;1657819;86;21065;-71
2022/05/14 08:59:15;;;;;;;20.97;13.20;;;;;;;19.15;45.77;99820.89;1657900;86;21053;-70
2022/05/14 09:01:45;;;;;;;27.80;14.03;;;;;;;19.03;46.30;99812.42;1613561;87;21103;-71
2022/05/14 09:04:17;;;;;;;21.15;15.35;;;;;;;18.91;46.44;99820.41;1633287;86;21094;-71
2022/05/14 09:06:45;;;;;;;20.65;14.83;;;;;;;18.81;46.82;99823.29;1616169;89;21545;-72
2022/05/14 09:09:12;;;;;;;24.52;15.88;;;;;;;18.67;47.54;99825.56;1631784;86;21102;-71
2022/05/14 09:11:55;;;;;;;21.52;17.67;;;;;;;18.59;48.61;99826.54;1651530;85;21095;-72
2022/05/14 09:14:36;;;;;;;22.50;17.52;;;;;;;18.54;49.01;99830.55;1620603;86;21660;-71
2022/05/14 09:17:20;;;;;;;24.18;18.87;;;;;;;18.50;49.41;99830.24;1602601;89;21063;-71
2022/05/14 09:19:45;;;;;;;29.70;19.60;;;;;;;18.54;49.21;99829.20;1609188;88;21062;-71
2022/05/14 09:22:23;;;;;;;22.00;19.02;;;;;;;18.55;48.71;99828.93;1606130;88;21066;-70
2022/05/14 09:24:58;;;;;;;26.95;17.17;;;;;;;18.55;48.35;99830.28;1584673;89;21059;-71
2022/05/14 09:27:37;;;;;;;20.17;13.78;;;;;;;18.52;47.47;99824.05;1590207;89;21070;-71
2022/05/14 09:30:10;;;;;;;13.32;10.13;;;;;;;18.50;45.94;99827.55;1590315;90;21071;-71
2022/05/14 09:32:44;;;;;;;10.90;6.47;;;;;;;18.50;43.77;99823.50;1594572;89;21070;-71
2022/05/14 09:35:24;;;;;;;9.65;5.97;;;;;;;18.41;42.22;99812.33;1631272;87;21070;-72
2022/05/14 09:37:53;;;;;;;12.60;5.95;;;;;;;18.34;42.74;99815.75;1661306;86;21499;-71
2022/05/14 09:40:25;;;;;;;8.00;5.53;;;;;;;18.31;42.77;99817.63;1679194;84;21215;-71
2022/05/14 09:42:55;;;;;;;9.25;6.55;;;;;;;18.32;43.15;99808.44;1674717;84;21081;-71
2022/05/14 09:45:30;;;;;;;7.47;5.70;;;;;;;18.39;43.39;99816.36;1663863;85;21624;-72
2022/05/14 09:48:10;;;;;;;5.40;4.97;;;;;;;18.43;43.32;99818.28;1626960;87;21116;-71
2022/05/14 09:50:39;;;;;;;6.42;5.12;;;;;;;18.43;43.04;99810.19;1674405;85;21347;-71
2022/05/14 09:53:06;;;;;;;8.15;5.28;;;;;;;18.44;43.12;99815.88;1650016;86;21047;-72
2022/05/14 09:55:59;;;;;;;5.95;5.37;;;;;;;18.49;43.43;99816.45;1651705;86;21117;-71
2022/05/14 09:58:46;;;;;;;5.75;5.17;;;;;;;18.52;43.98;99820.55;1625425;87;21061;-71
2022/05/14 10:01:41;;;;;;;5.03;4.22;;;;;;;18.52;43.35;99817.31;1627757;87;21122;-72
2022/05/14 10:04:34;;;;;;;8.00;3.83;;;;;;;18.55;43.79;99811.92;1628139;87;21109;-71
2022/05/14 10:07:09;;;;;;;8.63;4.70;;;;;;;18.57;44.23;99820.07;1588927;88;21059;-71
2022/05/14 10:10:22;;;;;;;5.55;4.28;;;;;;;18.64;44.03;99807.16;1626986;87;22138;-70
2022/05/14 10:13:32;;;;;;;4.12;3.15;;;;;;;18.67;43.67;99803.97;1629376;87;21348;-71
2022/05/14 10:16:25;;;;;;;7.22;3.80;;;;;;;18.68;43.61;99802.91;1628084;88;21055;-72
2022/05/14 10:19:26;;;;;;;5.50;4.25;;;;;;;18.79;43.59;99809.75;1628757;88;21050;-71
2022/05/14 10:26:44;;;;;;;6.80;3.22;;;;;;;18.92;44.02;99800.45;1619480;87;21142;-70
2022/05/14 10:28:20;;;;;;;9.03;1.67;;;;;;;19.23;43.50;99788.83;1617108;88;21018;-71
2022/05/14 10:31:11;;;;;;;2.75;1.60;;;;;;;19.38;42.74;99785.42;1597331;88;21195;-71
2022/05/14 10:33:39;;;;;;;3.42;1.65;;;;;;;19.52;41.80;99783.06;1610998;87;21044;-72
2022/05/14 10:36:17;;;;;;;5.47;1.02;;;;;;;19.64;41.13;99786.36;1601993;88;21785;-71
2022/05/14 10:38:53;;;;;;;2.00;1.35;;;;;;;19.65;41.00;99779.89;1641367;86;21161;-71
2022/05/14 10:41:39;;;;;;;2.25;1.00;;;;;;;19.72;40.28;99792.36;1640641;87;21151;-72
2022/05/14 10:44:32;;;;;;;2.45;1.37;;;;;;;19.68;40.82;99789.36;1618266;87;21187;-71
2022/05/14 10:47:03;;;;;;;2.55;1.37;;;;;;;19.75;41.19;99790.52;1619105;88;21093;-72
2022/05/14 10:49:35;;;;;;;1.82;1.35;;;;;;;19.90;40.57;99781.13;1631037;86;21011;-71
2022/05/14 10:52:03;;;;;;;6.45;0.90;;;;;;;20.01;40.58;99783.34;1641525;86;21025;-72
2022/05/14 10:54:33;;;;;;;2.17;0.70;;;;;;;20.08;40.30;99777.16;1608429;88;21049;-71
2022/05/14 10:57:16;;;;;;;2.52;1.22;;;;;;;20.13;39.80;99779.86;1628508;87;21540;-70
2022/05/14 11:00:00;;;;;;;3.52;0.40;;;;;;;20.13;40.15;99777.16;1615008;87;21654;-71
2022/05/14 11:02:34;;;;;;;0.75;0.40;;;;;;;20.15;39.13;99772.29;1624589;88;21046;-72
2022/05/14 11:05:01;;;;;;;2.20;0.45;;;;;;;20.09;38.08;99772.55;1677310;85;21049;-70
2022/05/14 11:07:39;;;;;;;1.85;0.70;;;;;;;19.95;38.50;99770.89;1622778;87;21113;-72
2022/05/14 11:10:33;;;;;;;6.12;1.02;;;;;;;19.90;39.39;99777.07;1673968;86;21113;-71
2022/05/14 11:13:24;;;;;;;2.62;0.80;;;;;;;19.92;39.60;99773.56;1620748;86;21001;-71
2022/05/14 11:16:09;;;;;;;0.82;0.40;;;;;;;19.91;40.08;99777.88;1620075;87;21143;-71
2022/05/14 11:18:51;;;;;;;3.87;0.70;;;;;;;19.93;40.22;99780.61;1631421;86;21075;-71
2022/05/14 11:21:19;;;;;;;3.58;0.57;;;;;;;19.97;40.46;99776.84;1641396;85;21081;-72
2022/05/14 11:23:56;;;;;;;0.80;0.68;;;;;;;19.98;40.10;99776.55;1655165;85;21580;-71
2022/05/14 11:26:25;;;;;;;1.80;0.70;;;;;;;20.00;40.09;99779.84;1651734;85;21054;-71
2022/05/14 11:29:14;;;;;;;1.30;0.90;;;;;;;19.99;40.14;99780.09;1640954;87;21117;-71
2022/05/14 11:31:56;;;;;;;2.77;0.90;;;;;;;20.01;39.94;99775.23;1637497;87;21533;-71
2022/05/14 11:34:25;;;;;;;3.77;1.00;;;;;;;20.01;39.75;99781.45;1650662;85;21028;-72
2022/05/14 11:36:57;;;;;;;1.90;0.90;;;;;;;20.01;39.68;99781.99;1658433;85;21068;-71
2022/05/14 11:39:28;;;;;;;5.42;1.87;;;;;;;20.03;40.06;99780.64;1657732;85;21005;-71
2022/05/14 11:42:24;;;;;;;3.62;1.30;;;;;;;20.06;39.96;99783.89;1658274;86;21119;-72
2022/05/14 11:45:15;;;;;;;3.60;2.02;;;;;;;20.08;39.92;99779.86;1657971;85;21335;-71
2022/05/14 11:47:50;;;;;;;4.15;1.65;;;;;;;20.09;39.79;99786.08;1655131;86;21127;-71
2022/05/14 11:50:22;;;;;;;3.72;2.17;;;;;;;20.07;39.66;99786.34;1663785;85;21065;-72
2022/05/14 11:53:18;;;;;;;7.22;2.35;;;;;;;20.09;39.96;99786.08;1616640;88;21107;-72
2022/05/14 11:55:50;;;;;;;4.58;3.40;;;;;;;20.06;39.87;99779.84;1654327;86;21033;-72
2022/05/14 11:58:48;;;;;;;7.25;3.45;;;;;;;19.95;39.64;99786.57;1621312;86;21212;-71
2022/05/14 12:01:19;;;;;;;6.30;3.50;;;;;;;19.86;39.53;99785.44;1661870;84;21024;-71
2022/05/14 12:03:47;;;;;;;5.90;4.50;;;;;;;19.77;39.35;99785.66;1683588;84;21581;-72
2022/05/14 12:06:46;;;;;;;6.08;4.87;;;;;;;19.35;39.43;99734.59;1644245;85;21023;-71
2022/05/14 12:09:48;;;;;;;6.10;5.00;;;;;;;19.59;39.52;99785.00;1657546;85;21585;-72
2022/05/14 12:12:22;;;;;;;8.60;5.03;;;;;;;19.53;39.80;99780.63;1660835;84;21066;-71